createdAt,value
2022-08-17T00:02:25.517Z,100632.50
2022-08-17T00:04:55.525Z,100628.94
2022-08-17T00:07:23.246Z,100635.03
2022-08-17T00:09:50.522Z,100636.91
2022-08-17T00:12:41.997Z,100631.28
2022-08-17T00:15:08.282Z,100630.25
2022-08-17T00:17:38.205Z,100636.34
2022-08-17T00:20:06.657Z,100635.53
2022-08-17T00:22:36.568Z,100637.19
2022-08-17T00:25:17.259Z,100638.03
2022-08-17T00:27:44.632Z,100643.28
2022-08-17T00:30:13.116Z,100636.00
2022-08-17T00:33:12.681Z,100634.97
2022-08-17T00:35:33.893Z,100627.84
2022-08-17T00:38:01.310Z,100619.50
2022-08-17T00:40:44.292Z,100627.44
2022-08-17T00:43:17.622Z,100618.47
2022-08-17T00:45:45.764Z,100622.00
2022-08-17T00:48:29.454Z,100635.44
2022-08-17T00:51:12.016Z,100633.56
2022-08-17T00:53:44.174Z,100628.13
2022-08-17T00:56:19.418Z,100635.22
2022-08-17T00:58:48.587Z,100631.47
2022-08-17T01:01:21.644Z,100625.19
2022-08-17T01:03:51.853Z,100624.16
2022-08-17T01:06:20.915Z,100633.19
2022-08-17T01:08:57.304Z,100639.47
2022-08-17T01:11:26.223Z,100639.47
2022-08-17T01:13:53.715Z,100640.28
2022-08-17T01:16:28.390Z,100643.84
2022-08-17T01:19:05.231Z,100632.97
2022-08-17T01:21:46.505Z,100641.97
2022-08-17T01:24:14.588Z,100632.97
2022-08-17T01:26:43.436Z,100642.81
2022-08-17T01:29:12.672Z,100635.50
2022-08-17T01:31:45.655Z,100636.53
2022-08-17T01:34:15.954Z,100643.66
2022-08-17T01:36:45.923Z,100642.66
2022-08-17T01:39:32.912Z,100628.19
2022-08-17T01:42:33.532Z,100639.94
2022-08-17T01:45:11.707Z,100642.44
2022-08-17T01:47:38.992Z,100642.44
2022-08-17T01:50:11.899Z,100637.00
2022-08-17T01:52:40.238Z,100635.13
2022-08-17T01:55:09.167Z,100639.53
2022-08-17T01:57:36.568Z,100634.09
2022-08-17T02:00:09.675Z,100644.97
2022-08-17T02:02:38.533Z,100641.28
2022-08-17T02:05:07.211Z,100649.44
2022-08-17T02:07:48.020Z,100649.44
2022-08-17T02:10:24.208Z,100655.69
2022-08-17T02:13:03.561Z,100667.41
2022-08-17T02:15:31.043Z,100667.56
2022-08-17T02:17:58.553Z,100672.84
2022-08-17T02:20:41.316Z,100670.28
2022-08-17T02:23:12.873Z,100673.69
2022-08-17T02:25:43.890Z,100681.00
2022-08-17T02:28:11.380Z,100683.72
2022-08-17T02:30:59.759Z,100694.38
2022-08-17T02:33:42.070Z,100688.09
2022-08-17T02:36:12.819Z,100685.38
2022-08-17T02:38:41.488Z,100694.38
2022-08-17T02:41:09.115Z,100681.84
2022-08-17T02:43:36.797Z,100683.50
2022-08-17T02:46:04.176Z,100677.25
2022-08-17T02:48:32.118Z,100677.25
2022-08-17T02:51:00.859Z,100670.13
2022-08-17T02:53:33.685Z,100678.91
2022-08-17T02:56:03.962Z,100675.34
2022-08-17T02:58:34.405Z,100669.94
2022-08-17T03:01:07.535Z,100673.47
2022-08-17T03:03:36.660Z,100672.47
2022-08-17T03:06:04.766Z,100669.75
2022-08-17T03:08:32.158Z,100656.16
2022-08-17T03:10:59.767Z,100651.56
2022-08-17T03:13:27.600Z,100651.56
2022-08-17T03:15:54.998Z,100652.41
2022-08-17T03:18:25.503Z,100655.97
2022-08-17T03:20:56.631Z,100660.72
2022-08-17T03:23:25.424Z,100660.56
2022-08-17T03:25:54.133Z,100653.44
2022-08-17T03:28:22.125Z,100667.88
2022-08-17T03:30:51.322Z,100672.47
2022-08-17T03:33:20.026Z,100676.41
2022-08-17T03:35:50.350Z,100673.88
2022-08-17T03:38:18.398Z,100682.66
2022-08-17T03:40:57.313Z,100679.31
2022-08-17T03:43:29.283Z,100682.03
2022-08-17T03:46:34.113Z,100670.28
2022-08-17T03:49:25.662Z,100661.28
2022-08-17T03:52:16.110Z,100662.31
2022-08-17T03:55:02.902Z,100655.00
2022-08-17T03:57:31.548Z,100659.59
2022-08-17T03:59:59.842Z,100652.47
2022-08-17T04:02:30.021Z,100647.03
2022-08-17T04:04:58.293Z,100657.06
2022-08-17T04:07:29.288Z,100657.06
2022-08-17T04:09:59.647Z,100662.50
2022-08-17T04:12:30.851Z,100660.63
2022-08-17T04:14:58.984Z,100661.66
2022-08-17T04:17:28.302Z,100668.94
2022-08-17T04:19:56.638Z,100671.66
2022-08-17T04:22:32.844Z,100677.97
2022-08-17T04:25:05.393Z,100683.41
2022-08-17T04:27:32.769Z,100686.13
2022-08-17T04:30:00.615Z,100680.69
2022-08-17T04:33:04.351Z,100684.25
2022-08-17T04:35:26.409Z,100693.41
2022-08-17T04:37:53.808Z,100685.25
2022-08-17T04:40:41.167Z,100683.41
2022-08-17T04:43:11.808Z,100698.66
2022-08-17T04:45:55.580Z,100696.13
2022-08-17T04:48:27.981Z,100699.03
2022-08-17T04:51:05.071Z,100706.16
2022-08-17T04:53:32.609Z,100710.75
2022-08-17T04:55:59.852Z,100713.47
2022-08-17T04:58:27.153Z,100711.78
2022-08-17T05:00:54.637Z,100710.94
2022-08-17T05:03:22.123Z,100723.69
2022-08-17T05:05:49.847Z,100728.09
2022-08-17T05:08:20.000Z,100740.81
2022-08-17T05:10:48.545Z,100740.16
2022-08-17T05:13:19.138Z,100747.28
2022-08-17T05:15:48.244Z,100752.72
2022-08-17T05:18:17.446Z,100748.97
2022-08-17T05:20:45.258Z,100745.41
2022-08-17T05:23:15.391Z,100738.09
2022-08-17T05:25:48.367Z,100747.94
2022-08-17T05:28:23.453Z,100750.66
2022-08-17T05:30:57.974Z,100753.38
2022-08-17T05:33:38.204Z,100758.81
2022-08-17T05:36:10.868Z,100754.41
2022-08-17T05:38:58.742Z,100766.13
2022-08-17T05:41:26.124Z,100763.41
2022-08-17T05:43:56.369Z,100757.13
2022-08-17T05:46:27.521Z,100765.28
2022-08-17T05:49:01.948Z,100766.97
2022-08-17T05:51:48.161Z,100769.69
2022-08-17T05:54:34.285Z,100768.63
2022-08-17T05:57:20.961Z,100766.97
2022-08-17T06:00:13.341Z,100768.63
2022-08-17T06:02:48.659Z,100772.19
2022-08-17T06:05:53.411Z,100772.41
2022-08-17T06:08:37.951Z,100778.38
2022-08-17T06:11:31.453Z,100768.72
2022-08-17T06:14:30.306Z,100765.16
2022-08-17T06:17:06.885Z,100762.63
2022-08-17T06:19:49.917Z,100765.72
2022-08-17T06:22:20.793Z,100775.75
2022-08-17T06:24:57.486Z,100774.22
2022-08-17T06:27:49.015Z,100765.25
2022-08-17T06:30:28.276Z,100767.13
2022-08-17T06:33:05.818Z,100767.47
2022-08-17T06:36:02.647Z,100766.81
2022-08-17T06:38:48.102Z,100773.66
2022-08-17T06:41:24.389Z,100779.44
2022-08-17T06:44:03.944Z,100776.72
2022-08-17T06:46:37.581Z,100770.63
2022-08-17T06:49:25.985Z,100764.19
2022-08-17T06:52:08.049Z,100768.78
2022-08-17T06:54:47.270Z,100774.19
2022-08-17T06:57:28.384Z,100776.03
2022-08-17T07:00:20.901Z,100759.75
2022-08-17T07:02:55.303Z,100748.72
2022-08-17T07:05:26.457Z,100752.47
2022-08-17T07:08:34.998Z,100762.47
2022-08-17T07:11:10.984Z,100752.47
2022-08-17T07:13:51.746Z,100755.34
2022-08-17T07:16:27.441Z,100757.44
2022-08-17T07:18:56.776Z,100760.31
2022-08-17T07:21:55.062Z,100771.34
2022-08-17T07:24:52.514Z,100771.72
2022-08-17T07:27:23.269Z,100757.84
2022-08-17T07:30:03.672Z,100739.38
2022-08-17T07:32:57.849Z,100746.31
2022-08-17T07:35:44.087Z,100747.63
2022-08-17T07:38:25.029Z,100747.47
2022-08-17T07:41:02.633Z,100760.22
2022-08-17T07:43:36.430Z,100771.41
2022-08-17T07:46:39.199Z,100753.63
2022-08-17T07:49:09.494Z,100750.06
2022-08-17T07:51:39.370Z,100752.78
2022-08-17T07:54:15.848Z,100751.75
2022-08-17T07:56:49.124Z,100746.97
2022-08-17T07:59:20.459Z,100753.06
2022-08-17T08:02:07.172Z,100759.16
2022-08-17T08:04:59.059Z,100756.09
2022-08-17T08:07:21.916Z,100764.88
2022-08-17T08:10:05.064Z,100764.72
2022-08-17T08:12:46.896Z,100764.53
2022-08-17T08:15:25.637Z,100765.19
2022-08-17T08:17:59.359Z,100762.31
2022-08-17T08:20:52.521Z,100770.09
2022-08-17T08:23:29.544Z,100779.94
2022-08-17T08:26:18.948Z,100786.88
2022-08-17T08:29:14.070Z,100792.75
2022-08-17T08:31:47.451Z,100784.44
2022-08-17T08:35:01.801Z,100766.06
2022-08-17T08:38:14.995Z,100754.50
2022-08-17T08:41:00.832Z,100762.28
2022-08-17T08:43:50.862Z,100771.91
2022-08-17T08:46:47.065Z,100741.88
2022-08-17T08:50:03.351Z,100725.56
2022-08-17T08:52:51.348Z,100729.97
2022-08-17T08:55:41.685Z,100738.94
2022-08-17T08:58:31.521Z,100744.38
2022-08-17T09:01:18.366Z,100746.06
2022-08-17T09:03:54.817Z,100742.31
2022-08-17T09:07:01.518Z,100738.38
2022-08-17T09:09:36.067Z,100738.38
2022-08-17T09:12:34.612Z,100738.22
2022-08-17T09:15:27.528Z,100738.22
2022-08-17T09:19:01.090Z,100738.91
2022-08-17T09:21:14.321Z,100735.34
2022-08-17T09:24:14.735Z,100731.59
2022-08-17T09:27:01.048Z,100727.84
2022-08-17T09:29:35.160Z,100724.94
2022-08-17T09:32:15.032Z,100728.31
2022-08-17T09:34:51.381Z,100726.44
2022-08-17T09:38:01.165Z,100731.69
2022-08-17T09:40:43.520Z,100736.09
2022-08-17T09:43:40.099Z,100726.91
2022-08-17T09:46:19.801Z,100728.59
2022-08-17T09:48:50.299Z,100744.72
2022-08-17T09:51:30.367Z,100751.19
2022-08-17T09:54:14.709Z,100754.34
2022-08-17T09:57:28.159Z,100735.34
2022-08-17T10:00:16.089Z,100738.72
2022-08-17T10:03:03.064Z,100736.28
2022-08-17T10:05:57.151Z,100749.31
2022-08-17T10:08:36.366Z,100736.56
2022-08-17T10:11:16.774Z,100746.41
2022-08-17T10:14:36.914Z,100749.13
2022-08-17T10:17:15.891Z,100749.97
2022-08-17T10:20:35.758Z,100734.50
2022-08-17T10:23:25.311Z,100734.50
2022-08-17T10:26:15.702Z,100741.81
2022-08-17T10:29:09.832Z,100735.34
2022-08-17T10:31:51.719Z,100746.22
2022-08-17T10:34:32.277Z,100751.66
2022-08-17T10:43:42.330Z,100739.59
2022-08-17T11:04:59.764Z,100710.78
2022-08-17T11:08:05.362Z,100709.72
2022-08-17T11:10:59.050Z,100713.97
2022-08-17T11:13:29.308Z,100710.66
2022-08-17T11:16:09.036Z,100714.22
2022-08-17T11:18:45.341Z,100714.06
2022-08-17T11:22:00.476Z,100711.16
2022-08-17T11:24:31.034Z,100712.00
2022-08-17T11:27:16.447Z,100703.66
2022-08-17T11:29:58.053Z,100699.88
2022-08-17T11:32:47.196Z,100715.00
2022-08-17T11:35:43.382Z,100714.63
2022-08-17T11:38:36.979Z,100707.28
2022-08-17T11:41:34.158Z,100696.03
2022-08-17T11:44:22.617Z,100702.13
2022-08-17T11:47:20.690Z,100699.22
2022-08-17T11:50:25.700Z,100697.50
2022-08-17T11:52:55.383Z,100695.00
2022-08-17T11:55:39.363Z,100699.75
2022-08-17T11:58:18.099Z,100687.41
2022-08-17T12:00:45.326Z,100681.13
2022-08-17T12:03:22.734Z,100683.84
2022-08-17T12:05:53.547Z,100674.66
2022-08-17T12:08:23.077Z,100661.88
2022-08-17T12:11:19.030Z,100656.25
2022-08-17T12:14:11.616Z,100661.03
2022-08-17T12:16:42.707Z,100650.38
2022-08-17T12:19:21.075Z,100651.22
2022-08-17T12:22:16.539Z,100665.81
2022-08-17T12:25:02.587Z,100659.53
2022-08-17T12:28:04.476Z,100669.59
2022-08-17T12:30:22.205Z,100674.38
2022-08-17T12:32:50.117Z,100679.84
2022-08-17T12:35:29.866Z,100672.69
2022-08-17T12:37:58.070Z,100683.56
2022-08-17T12:40:28.860Z,100680.84
2022-08-17T12:43:32.963Z,100676.44
2022-08-17T12:46:13.300Z,100682.72
2022-08-17T12:48:58.837Z,100675.41
2022-08-17T12:51:29.200Z,100674.56
2022-08-17T12:53:56.837Z,100687.78
2022-08-17T12:56:24.255Z,100688.56
2022-08-17T12:58:55.640Z,100682.47
2022-08-17T13:01:25.204Z,100675.34
2022-08-17T13:03:55.212Z,100678.50
2022-08-17T13:06:35.778Z,100680.66
2022-08-17T13:09:17.994Z,100676.34
2022-08-17T13:11:51.850Z,100669.13
2022-08-17T13:14:19.969Z,100663.94
2022-08-17T13:16:55.592Z,100669.44
2022-08-17T13:19:40.433Z,100661.84
2022-08-17T13:22:12.692Z,100653.63
2022-08-17T13:24:53.156Z,100639.53
2022-08-17T13:27:23.838Z,100645.69
2022-08-17T13:29:56.430Z,100653.53
2022-08-17T13:32:36.593Z,100650.34
2022-08-17T13:35:40.998Z,100653.59
2022-08-17T13:38:13.139Z,100644.78
2022-08-17T13:40:50.096Z,100629.06
2022-08-17T13:43:50.579Z,100618.75
2022-08-17T13:46:21.791Z,100598.91
2022-08-17T13:49:04.674Z,100558.56
2022-08-17T13:51:42.888Z,100534.16
2022-08-17T13:54:23.488Z,100510.59
2022-08-17T13:57:04.195Z,100514.34
2022-08-17T13:59:53.020Z,100518.72
2022-08-17T14:02:28.343Z,100520.59
2022-08-17T14:04:57.806Z,100519.75
2022-08-17T14:07:33.735Z,100526.22
2022-08-17T14:10:17.501Z,100534.34
2022-08-17T14:12:45.554Z,100544.38
2022-08-17T14:15:15.842Z,100540.81
2022-08-17T14:17:43.524Z,100548.09
2022-08-17T14:20:12.828Z,100546.41
2022-08-17T14:22:44.918Z,100552.66
2022-08-17T14:25:15.590Z,100544.72
2022-08-17T14:27:52.390Z,100551.19
2022-08-17T14:30:25.703Z,100548.63
2022-08-17T14:32:55.123Z,100556.78
2022-08-17T14:35:24.089Z,100556.97
2022-08-17T14:37:52.109Z,100562.59
2022-08-17T14:40:24.462Z,100561.72
2022-08-17T14:42:54.438Z,100572.75
2022-08-17T14:45:31.983Z,100574.63
2022-08-17T14:48:04.145Z,100577.53
2022-08-17T14:50:32.087Z,100579.56
2022-08-17T14:53:05.139Z,100581.63
2022-08-17T14:55:32.913Z,100579.28
2022-08-17T14:58:00.298Z,100581.50
2022-08-17T15:00:28.609Z,100570.16
2022-08-17T15:02:58.832Z,100572.22
2022-08-17T15:05:33.837Z,100569.16
2022-08-17T15:08:03.083Z,100566.84
2022-08-17T15:10:30.685Z,100563.44
2022-08-17T15:12:58.518Z,100559.72
2022-08-17T15:15:26.428Z,100575.97
2022-08-17T15:17:53.706Z,100563.44
2022-08-17T15:20:25.010Z,100554.66
2022-08-17T15:22:56.031Z,100568.56
2022-08-17T15:25:25.416Z,100558.09
2022-08-17T15:27:53.752Z,100537.44
2022-08-17T15:30:21.746Z,100536.41
2022-08-17T15:32:54.485Z,100522.19
2022-08-17T15:35:28.369Z,100518.63
2022-08-17T15:38:11.033Z,100519.84
2022-08-17T15:40:50.749Z,100515.44
2022-08-17T15:43:26.665Z,100521.22
2022-08-17T15:46:18.840Z,100537.84
2022-08-17T15:48:51.575Z,100538.03
2022-08-17T15:51:26.625Z,100544.44
2022-08-17T15:54:17.241Z,100566.31
2022-08-17T15:56:47.087Z,100556.50
2022-08-17T15:59:14.413Z,100556.50
2022-08-17T16:03:02.190Z,100554.78
2022-08-17T16:04:30.824Z,100557.69
2022-08-17T16:07:00.088Z,100556.66
2022-08-17T16:09:28.158Z,100572.09
2022-08-17T16:11:56.377Z,100573.13
2022-08-17T16:14:33.558Z,100575.47
2022-08-17T16:17:04.601Z,100553.41
2022-08-17T16:19:34.347Z,100546.66
2022-08-17T16:22:02.709Z,100540.00
2022-08-17T16:24:30.802Z,100525.25
2022-08-17T16:28:13.784Z,100519.66
2022-08-17T16:30:41.536Z,100526.41
2022-08-17T16:33:11.488Z,100518.94
2022-08-17T16:35:39.212Z,100507.91
2022-08-17T16:38:07.165Z,100510.41
2022-08-17T16:40:36.406Z,100502.28
2022-08-17T16:43:10.655Z,100520.25
2022-08-17T16:45:40.809Z,100536.53
2022-08-17T16:48:09.655Z,100541.75
2022-08-17T16:50:37.472Z,100544.47
2022-08-17T16:53:06.571Z,100530.91
2022-08-17T16:55:35.756Z,100539.06
2022-08-17T16:58:08.849Z,100564.28
2022-08-17T17:00:37.459Z,100578.69
2022-08-17T17:03:19.585Z,100591.25
2022-08-17T17:06:07.139Z,100607.50
2022-08-17T17:08:54.713Z,100615.66
2022-08-17T17:11:45.185Z,100642.56
2022-08-17T17:14:28.301Z,100660.69
2022-08-17T17:17:13.912Z,100674.91
2022-08-17T17:20:24.269Z,100689.16
2022-08-17T17:23:08.880Z,100708.13
2022-08-17T17:25:50.973Z,100687.28
2022-08-17T17:28:34.508Z,100683.53
2022-08-17T17:31:14.303Z,100689.81
2022-08-17T17:33:48.303Z,100700.66
2022-08-17T17:36:56.495Z,100697.94
2022-08-17T17:40:01.689Z,100674.38
2022-08-17T17:42:31.749Z,100657.25
2022-08-17T17:45:32.091Z,100663.72
2022-08-17T17:47:59.378Z,100667.28
2022-08-17T17:51:12.106Z,100668.94
2022-08-17T17:53:52.861Z,100661.00
2022-08-17T17:56:43.743Z,100688.97
2022-08-17T17:59:32.910Z,100665.28
2022-08-17T18:02:47.418Z,100653.56
2022-08-17T18:05:19.656Z,100661.00
2022-08-17T18:07:55.711Z,100673.03
2022-08-17T18:10:47.437Z,100661.34
2022-08-17T18:13:35.632Z,100662.19
2022-08-17T18:16:10.533Z,100664.91
2022-08-17T18:18:39.873Z,100673.91
2022-08-17T18:21:21.205Z,100688.47
2022-08-17T18:23:48.521Z,100701.03
2022-08-17T18:26:34.480Z,100727.28
2022-08-17T18:29:12.177Z,100758.97
2022-08-17T18:31:39.674Z,100777.09
2022-08-17T18:34:47.142Z,100774.41
2022-08-17T18:37:31.893Z,100772.53
2022-08-17T18:40:23.462Z,100763.56
2022-08-17T18:43:11.559Z,100776.25
2022-08-17T18:45:46.605Z,100793.56
2022-08-17T18:48:22.979Z,100771.88
2022-08-17T18:50:53.604Z,100761.03
2022-08-17T18:53:33.558Z,100767.47
2022-08-17T18:56:40.384Z,100782.88
2022-08-17T18:59:27.203Z,100782.03
2022-08-17T19:02:03.248Z,100767.63
2022-08-17T19:04:35.055Z,100764.09
2022-08-17T19:07:19.243Z,100765.94
2022-08-17T19:09:52.777Z,100773.25
2022-08-17T19:12:29.104Z,100763.44
2022-08-17T19:14:58.277Z,100767.13
2022-08-17T19:17:33.110Z,100762.56
2022-08-17T19:20:10.356Z,100745.44
2022-08-17T19:22:51.575Z,100747.31
2022-08-17T19:25:24.612Z,100738.34
2022-08-17T19:27:57.902Z,100734.78
2022-08-17T19:30:25.549Z,100744.78
2022-08-17T19:32:53.188Z,100757.50
2022-08-17T19:35:24.593Z,100752.94
2022-08-17T19:38:00.832Z,100746.66
2022-08-17T19:40:58.531Z,100733.94
2022-08-17T19:44:13.835Z,100735.81
2022-08-17T19:46:56.382Z,100731.38
2022-08-17T19:49:47.829Z,100736.81
2022-08-17T19:52:15.113Z,100734.28
2022-08-17T19:55:03.471Z,100731.56
2022-08-17T19:57:56.950Z,100735.31
2022-08-17T20:00:24.639Z,100739.72
2022-08-17T20:03:20.001Z,100743.44
2022-08-17T20:06:12.033Z,100746.16
2022-08-17T20:08:48.824Z,100725.50
2022-08-17T20:11:23.354Z,100723.78
2022-08-17T20:14:04.599Z,100731.91
2022-08-17T20:16:33.422Z,100726.50
2022-08-17T20:19:06.139Z,100730.25
2022-08-17T20:21:45.941Z,100741.09
2022-08-17T20:24:25.214Z,100744.63
2022-08-17T20:27:19.681Z,100737.53
2022-08-17T20:30:29.822Z,100750.25
2022-08-17T20:32:58.902Z,100745.84
2022-08-17T20:35:33.320Z,100743.97
2022-08-17T20:38:40.883Z,100750.41
2022-08-17T20:41:12.708Z,100743.13
2022-08-17T20:43:40.003Z,100739.75
2022-08-17T20:46:29.017Z,100759.56
2022-08-17T20:49:45.477Z,100755.66
2022-08-17T20:52:19.362Z,100746.50
2022-08-17T20:54:50.803Z,100747.53
2022-08-17T20:57:33.333Z,100738.91
2022-08-17T21:00:18.281Z,100739.09
2022-08-17T21:02:49.694Z,100728.06
2022-08-17T21:05:59.757Z,100722.44
2022-08-17T21:08:37.199Z,100713.66
2022-08-17T21:12:02.654Z,100709.63
2022-08-17T21:14:24.551Z,100711.28
2022-08-17T21:17:34.802Z,100715.69
2022-08-17T21:20:34.660Z,100720.97
2022-08-17T21:23:20.485Z,100734.66
2022-08-17T21:25:53.584Z,100743.31
2022-08-17T21:29:00.407Z,100735.00
2022-08-17T21:31:44.168Z,100731.28
2022-08-17T21:34:25.724Z,100724.16
2022-08-17T21:36:53.469Z,100730.78
2022-08-17T21:39:33.616Z,100741.78
2022-08-17T21:42:01.570Z,100749.91
2022-08-17T21:44:36.943Z,100751.44
2022-08-17T21:47:24.635Z,100745.84
2022-08-17T21:49:53.860Z,100749.59
2022-08-17T21:52:24.531Z,100748.94
2022-08-17T21:54:56.153Z,100742.81
2022-08-17T21:57:29.658Z,100746.22
2022-08-17T21:59:59.942Z,100746.03
2022-08-17T22:02:33.688Z,100744.16
2022-08-17T22:05:04.315Z,100737.25
2022-08-17T22:07:58.823Z,100745.53
2022-08-17T22:10:32.711Z,100740.78
2022-08-17T22:13:03.422Z,100742.47
2022-08-17T22:15:30.728Z,100737.06
2022-08-17T22:18:01.678Z,100744.50
2022-08-17T22:20:29.102Z,100732.16
2022-08-17T22:23:17.616Z,100736.56
2022-08-17T22:26:05.056Z,100741.78
2022-08-17T22:28:46.431Z,100742.47
2022-08-17T22:31:17.369Z,100743.50
2022-08-17T22:33:46.916Z,100736.56
2022-08-17T22:36:30.937Z,100737.41
2022-08-17T22:39:22.616Z,100734.53
2022-08-17T22:42:00.858Z,100728.94
2022-08-17T22:44:28.229Z,100722.81
2022-08-17T22:47:17.043Z,100713.19
2022-08-17T22:49:57.684Z,100718.78
2022-08-17T22:52:57.888Z,100729.44
2022-08-17T22:55:45.172Z,100727.59
2022-08-17T22:58:35.032Z,100727.41
2022-08-17T23:01:25.971Z,100721.47
2022-08-17T23:03:57.022Z,100715.41
2022-08-17T23:06:24.498Z,100706.09
2022-08-17T23:08:57.745Z,100699.47
2022-08-17T23:11:36.629Z,100700.28
2022-08-17T23:14:16.251Z,100701.66
2022-08-17T23:16:43.584Z,100713.53
2022-08-17T23:19:13.412Z,100718.78
2022-08-17T23:21:41.621Z,100729.44
2022-08-17T23:24:09.847Z,100734.69
2022-08-17T23:26:39.313Z,100734.03
2022-08-17T23:29:07.676Z,100728.94
2022-08-17T23:31:37.581Z,100715.41
2022-08-17T23:34:09.951Z,100710.63
2022-08-17T23:36:38.049Z,100703.19
2022-08-17T23:39:06.371Z,100713.50
2022-08-17T23:41:38.411Z,100712.81
2022-08-17T23:44:06.616Z,100703.13
2022-08-17T23:46:34.784Z,100700.56
2022-08-17T23:49:03.282Z,100681.91
2022-08-17T23:51:36.430Z,100683.25
2022-08-17T23:54:13.611Z,100671.84
2022-08-17T23:56:46.585Z,100668.63
2022-08-17T23:59:19.111Z,100669.31
